»·PEaware :: AMX1664 KLAX-KSFO

AMX1664 :: KLAX-KSFO

FLIGHT INFORMATION

Flight Status: Arrived
Operator:
Aeromexico
More flights by this operator :: More flights under this callsign
Pilot: Alfredo R. (12181)
Aircraft: BOEING 737-800
(B738)
More flights by this aircraft type
Origin: KLAX Los Angeles Intl
United States
Destination: KSFO San Francisco Intl
United States
More flights between these airports :: More routes between these airports
Route: SUMMR1 STOKD SERFR SERFR2
File this flight plan on PilotEdge
Remarks:
Altitude:
(Current/Filed)
36,000ft
Speed:
(Current/Filed)
440kts
Departed: 31-Dec-17 02:18 PM
Arrived: 31-Dec-17 03:14 PM
Distance/Time
Traveled:
293nm/0:56
Distance/Time
To Go:
Arrived

Flight Plot

Page will automatically refresh every two minutes.

Flight plan parsing failed; only flown route is shown


Map Options




Map Legend


Flown Route
Filed Route
Departure Airport
Arrival Airport
Navaid (VOR, NDB)
Fix

Horizontal Profiles

Position Reports

Time Latitude Longitude Heading Altitude Ground
Speed
31-Dec-17 13:45 33.941038 -118.405041 85 120ft 0kts
31-Dec-17 13:46 33.941038 -118.405041 85 120ft 0kts
31-Dec-17 13:47 33.941038 -118.405041 85 120ft 0kts
31-Dec-17 13:48 33.941038 -118.405041 85 120ft 0kts
31-Dec-17 13:49 33.941038 -118.405041 85 120ft 0kts
31-Dec-17 13:50 33.941038 -118.405041 85 120ft 0kts
31-Dec-17 13:51 33.941038 -118.405041 85 120ft 0kts
31-Dec-17 13:52 33.941038 -118.405041 85 120ft 0kts
31-Dec-17 13:53 33.941038 -118.405041 85 120ft 0kts
31-Dec-17 13:54 33.941038 -118.405041 85 120ft 0kts
31-Dec-17 13:55 33.941038 -118.405041 85 120ft 0kts
31-Dec-17 13:56 33.941038 -118.405041 85 120ft 0kts
31-Dec-17 13:57 33.941038 -118.405041 85 120ft 0kts
31-Dec-17 13:58 33.941038 -118.405041 85 120ft 0kts
31-Dec-17 13:59 33.941038 -118.405041 85 120ft 0kts
31-Dec-17 14:00 33.941038 -118.405041 85 120ft 0kts
31-Dec-17 14:01 33.941038 -118.405041 85 120ft 0kts
31-Dec-17 14:02 33.941038 -118.405041 85 120ft 0kts
31-Dec-17 14:03 33.941038 -118.405041 85 120ft 0kts
31-Dec-17 14:04 33.941009 -118.405401 86 121ft 2kts
31-Dec-17 14:05 33.941431 -118.405681 171 121ft 1kts
31-Dec-17 14:06 33.941440 -118.405682 172 121ft 0kts
31-Dec-17 14:07 33.941440 -118.405682 172 121ft 0kts
31-Dec-17 14:08 33.941440 -118.405682 172 121ft 0kts
31-Dec-17 14:09 33.941440 -118.405682 172 121ft 0kts
31-Dec-17 14:10 33.941440 -118.405682 172 121ft 0kts
31-Dec-17 14:11 33.941440 -118.405682 172 121ft 0kts
31-Dec-17 14:12 33.941394 -118.405674 172 121ft 0kts
31-Dec-17 14:13 33.940186 -118.405499 173 122ft 4kts
31-Dec-17 14:14 33.939927 -118.405462 173 122ft 0kts
31-Dec-17 14:15 33.939319 -118.405384 173 122ft 7kts
31-Dec-17 14:16 33.938452 -118.403220 82 119ft 14kts
31-Dec-17 14:17 33.939059 -118.397267 83 111ft 20kts
31-Dec-17 14:18 33.939775 -118.390289 83 103ft 20kts
31-Dec-17 14:19 33.940359 -118.384543 83 102ft 15kts
31-Dec-17 14:20 33.940709 -118.380757 106 99ft 0kts
31-Dec-17 14:21 33.940709 -118.380757 107 99ft 0kts
31-Dec-17 14:22 33.940701 -118.380723 107 99ft 1kts
31-Dec-17 14:23 33.939792 -118.380625 256 99ft 8kts
31-Dec-17 14:24 33.938946 -118.388841 262 103ft 75kts
31-Dec-17 14:25 33.933625 -118.436764 262 1188ft 163kts
31-Dec-17 14:26 33.928376 -118.493927 265 2534ft 198kts
31-Dec-17 14:27 33.922685 -118.567955 265 3647ft 250kts
31-Dec-17 14:28 33.917283 -118.652608 270 6236ft 265kts
31-Dec-17 14:29 33.917251 -118.742841 271 8772ft 279kts
31-Dec-17 14:30 33.917000 -118.839533 272 10787ft 309kts
31-Dec-17 14:31 33.920230 -118.944618 272 13356ft 317kts
31-Dec-17 14:32 33.937985 -119.047199 300 15785ft 327kts
31-Dec-17 14:33 33.986544 -119.140990 299 18500ft 337kts
31-Dec-17 14:34 34.051783 -119.222956 321 20966ft 354kts
31-Dec-17 14:35 34.132894 -119.292370 320 23121ft 361kts
31-Dec-17 14:36 34.215365 -119.363522 319 24587ft 371kts
31-Dec-17 14:37 34.300224 -119.436781 319 26610ft 380kts
31-Dec-17 14:38 34.385030 -119.509920 318 28886ft 375kts
31-Dec-17 14:39 34.459900 -119.592027 307 30809ft 361kts
31-Dec-17 14:40 34.528832 -119.678394 306 32554ft 355kts
31-Dec-17 14:41 34.597071 -119.763545 306 34105ft 351kts
31-Dec-17 14:42 34.664948 -119.848076 306 35442ft 348kts
31-Dec-17 14:43 34.732542 -119.932230 307 36133ft 355kts
31-Dec-17 14:44 34.803523 -120.020466 307 36128ft 379kts
31-Dec-17 14:45 34.878554 -120.113624 308 36165ft 400kts
31-Dec-17 14:46 34.957128 -120.211067 308 36158ft 416kts
31-Dec-17 14:47 35.037391 -120.310527 308 36155ft 416kts
31-Dec-17 14:48 35.118964 -120.408398 311 36148ft 418kts
31-Dec-17 14:49 35.203238 -120.502744 311 36140ft 418kts
31-Dec-17 14:50 35.287825 -120.598022 311 36133ft 419kts
31-Dec-17 14:51 35.372583 -120.693445 311 36148ft 418kts
31-Dec-17 14:52 35.458069 -120.789643 311 36148ft 418kts
31-Dec-17 14:53 35.548845 -120.879414 316 36122ft 422kts
31-Dec-17 14:54 35.641821 -120.966019 316 36120ft 422kts
31-Dec-17 14:55 35.734808 -121.052985 316 36119ft 422kts
31-Dec-17 14:56 35.827005 -121.139165 316 35885ft 417kts
31-Dec-17 14:57 35.918472 -121.224686 316 34220ft 412kts
31-Dec-17 14:58 36.009712 -121.309950 317 32431ft 414kts
31-Dec-17 14:59 36.102486 -121.391980 322 30559ft 410kts
31-Dec-17 15:00 36.198527 -121.466552 322 28550ft 410kts
31-Dec-17 15:01 36.293386 -121.540843 323 26548ft 405kts
31-Dec-17 15:02 36.386619 -121.613957 323 24522ft 394kts
31-Dec-17 15:03 36.476913 -121.684718 323 22531ft 384kts
31-Dec-17 15:04 36.565378 -121.754536 323 20573ft 373kts
31-Dec-17 15:05 36.651748 -121.823045 324 18950ft 368kts
31-Dec-17 15:06 36.737179 -121.890229 329 17450ft 363kts
31-Dec-17 15:07 36.834988 -121.920571 345 15980ft 363kts
31-Dec-17 15:08 36.930704 -121.947058 344 14492ft 348kts
31-Dec-17 15:09 37.020558 -121.979637 339 13008ft 336kts
31-Dec-17 15:10 37.107957 -122.014074 339 11526ft 326kts
31-Dec-17 15:11 37.189420 -122.045997 339 10040ft 298kts
31-Dec-17 15:12 37.265667 -122.075881 340 8815ft 280kts
31-Dec-17 15:13 37.338451 -122.104399 340 7611ft 272kts
31-Dec-17 15:14 37.407524 -122.131537 340 6406ft 257kts
31-Dec-17 15:15 37.474623 -122.157161 345 5064ft 248kts
31-Dec-17 15:16 37.531875 -122.191079 303 3453ft 218kts
31-Dec-17 15:17 37.556598 -122.252151 297 2745ft 173kts
31-Dec-17 15:18 37.578027 -122.307293 298 1266ft 172kts
31-Dec-17 15:19 37.607458 -122.347185 293 253ft 146kts
31-Dec-17 15:20 37.618830 -122.375742 282 22ft 22kts
31-Dec-17 15:21 37.618556 -122.379369 211 29ft 6kts
31-Dec-17 15:22 37.615766 -122.380185 211 30ft 11kts
31-Dec-17 15:23 37.615737 -122.382382 233 30ft 3kts
31-Dec-17 15:24 37.615536 -122.382651 227 30ft 0kts

Navigation Log

Ident Type
Flight plan parsing failed, navigation log unavailable